createdAt,value
2022-10-04T00:01:30.145Z,8.99
2022-10-04T00:04:07.006Z,8.96
2022-10-04T00:06:36.740Z,8.95
2022-10-04T00:09:10.042Z,9.08
2022-10-04T00:11:45.140Z,9.02
2022-10-04T00:14:21.179Z,8.99
2022-10-04T00:16:50.269Z,8.98
2022-10-04T00:19:42.527Z,8.99
2022-10-04T00:22:22.697Z,8.89
2022-10-04T00:25:22.845Z,8.97
2022-10-04T00:28:36.796Z,8.96
2022-10-04T00:31:23.040Z,8.95
2022-10-04T00:33:54.843Z,8.83
2022-10-04T00:36:52.004Z,8.85
2022-10-04T00:39:43.269Z,8.83
2022-10-04T00:42:39.583Z,8.88
2022-10-04T00:45:28.632Z,8.87
2022-10-04T00:48:33.028Z,8.89
2022-10-04T00:51:10.547Z,8.89
2022-10-04T00:53:49.468Z,8.76
2022-10-04T00:56:26.997Z,8.66
2022-10-04T00:59:31.146Z,8.64
2022-10-04T01:02:04.509Z,8.68
2022-10-04T01:04:42.047Z,8.65
2022-10-04T01:07:13.258Z,8.60
2022-10-04T01:09:51.429Z,8.59
2022-10-04T01:12:34.449Z,8.61
2022-10-04T01:15:10.186Z,8.61
2022-10-04T01:17:38.627Z,8.56
2022-10-04T01:20:33.720Z,8.39
2022-10-04T01:23:05.459Z,8.21
2022-10-04T01:25:52.091Z,8.20
2022-10-04T01:28:21.291Z,8.09
2022-10-04T01:30:49.937Z,8.10
2022-10-04T01:33:18.420Z,8.17
2022-10-04T01:35:47.254Z,8.12
2022-10-04T01:38:17.333Z,8.24
2022-10-04T01:40:54.703Z,8.12
2022-10-04T01:43:30.459Z,8.16
2022-10-04T01:46:06.072Z,8.19
2022-10-04T01:48:39.005Z,8.20
2022-10-04T01:51:14.569Z,8.23
2022-10-04T01:53:49.600Z,8.09
2022-10-04T01:56:22.612Z,7.99
2022-10-04T01:58:55.349Z,8.02
2022-10-04T02:01:30.671Z,7.95
2022-10-04T02:04:04.727Z,8.02
2022-10-04T02:06:39.758Z,8.08
2022-10-04T02:09:15.375Z,7.96
2022-10-04T02:11:45.906Z,7.99
2022-10-04T02:14:17.595Z,7.97
2022-10-04T02:16:48.189Z,7.97
2022-10-04T02:19:17.650Z,8.10
2022-10-04T02:21:46.783Z,8.00
2022-10-04T02:24:17.381Z,8.02
2022-10-04T02:26:51.578Z,8.04
2022-10-04T02:29:21.830Z,8.01
2022-10-04T02:32:09.812Z,8.09
2022-10-04T02:34:39.142Z,7.97
2022-10-04T02:37:08.403Z,7.98
2022-10-04T02:39:44.049Z,7.97
2022-10-04T02:42:21.735Z,7.90
2022-10-04T02:44:56.761Z,7.95
2022-10-04T02:47:29.433Z,7.99
2022-10-04T02:50:02.202Z,8.09
2022-10-04T02:52:35.916Z,7.97
2022-10-04T02:55:12.139Z,7.92
2022-10-04T02:57:44.342Z,7.91
2022-10-04T03:00:20.438Z,7.98
2022-10-04T03:03:18.266Z,8.05
2022-10-04T03:05:57.628Z,8.04
2022-10-04T03:08:26.806Z,8.08
2022-10-04T03:10:57.129Z,7.93
2022-10-04T03:13:25.575Z,7.89
2022-10-04T03:15:54.138Z,7.69
2022-10-04T03:18:23.953Z,7.77
2022-10-04T03:20:52.444Z,7.87
2022-10-04T03:23:22.390Z,7.79
2022-10-04T03:25:54.852Z,7.81
2022-10-04T03:28:24.775Z,7.88
2022-10-04T03:30:54.157Z,7.92
2022-10-04T03:33:25.961Z,7.95
2022-10-04T03:35:57.787Z,7.86
2022-10-04T03:38:27.565Z,7.84
2022-10-04T03:40:59.111Z,7.70
2022-10-04T03:43:31.814Z,7.61
2022-10-04T03:46:02.433Z,7.51
2022-10-04T03:48:37.324Z,7.60
2022-10-04T03:51:09.277Z,7.66
2022-10-04T03:53:43.448Z,7.59
2022-10-04T03:56:14.890Z,7.67
2022-10-04T03:58:45.409Z,7.71
2022-10-04T04:01:28.823Z,7.73
2022-10-04T04:04:04.339Z,7.74
2022-10-04T04:06:46.470Z,7.83
2022-10-04T04:09:23.969Z,7.86
2022-10-04T04:11:53.581Z,7.88
2022-10-04T04:14:27.767Z,7.87
2022-10-04T04:17:30.889Z,7.96
2022-10-04T04:20:07.122Z,8.10
2022-10-04T04:22:37.922Z,8.59
2022-10-04T04:25:14.088Z,8.53
2022-10-04T04:27:45.321Z,8.63
2022-10-04T04:30:19.219Z,8.75
2022-10-04T04:32:52.690Z,8.78
2022-10-04T04:35:31.244Z,8.70
2022-10-04T04:38:20.906Z,8.71
2022-10-04T04:40:49.652Z,8.84
2022-10-04T04:43:20.795Z,8.93
2022-10-04T04:46:08.586Z,9.08
2022-10-04T04:48:40.115Z,9.00
2022-10-04T04:51:09.164Z,9.29
2022-10-04T04:53:38.237Z,9.22
2022-10-04T04:56:11.096Z,8.87
2022-10-04T04:58:46.164Z,9.08
2022-10-04T05:01:25.720Z,9.17
2022-10-04T05:04:05.921Z,9.16
2022-10-04T05:06:36.306Z,9.09
2022-10-04T05:09:05.929Z,9.01
2022-10-04T05:11:38.168Z,9.08
2022-10-04T05:14:10.551Z,9.26
2022-10-04T05:16:44.882Z,9.11
2022-10-04T05:19:17.744Z,9.16
2022-10-04T05:21:48.675Z,8.81
2022-10-04T05:24:26.035Z,8.54
2022-10-04T05:26:58.357Z,8.36
2022-10-04T05:29:29.829Z,8.31
2022-10-04T05:32:13.345Z,8.30
2022-10-04T05:34:45.771Z,7.92
2022-10-04T05:37:44.399Z,8.04
2022-10-04T05:40:33.657Z,8.06
2022-10-04T05:43:02.240Z,7.90
2022-10-04T05:45:32.707Z,8.04
2022-10-04T05:48:08.134Z,8.06
2022-10-04T05:50:40.771Z,8.13
2022-10-04T05:53:24.359Z,8.05
2022-10-04T05:56:05.610Z,7.85
2022-10-04T05:58:54.133Z,7.86
2022-10-04T06:01:37.875Z,7.93
2022-10-04T06:04:30.806Z,8.04
2022-10-04T06:07:03.188Z,7.97
2022-10-04T06:10:19.896Z,7.95
2022-10-04T06:12:58.391Z,7.95
2022-10-04T06:15:57.572Z,7.90
2022-10-04T06:18:44.248Z,7.95
2022-10-04T06:21:21.835Z,8.04
2022-10-04T06:23:58.883Z,7.87
2022-10-04T06:26:33.518Z,7.98
2022-10-04T06:29:10.601Z,8.11
2022-10-04T06:32:08.958Z,8.10
2022-10-04T06:35:18.512Z,8.09
2022-10-04T06:38:11.330Z,8.11
2022-10-04T06:41:02.752Z,8.21
2022-10-04T06:43:51.891Z,8.24
2022-10-04T06:46:29.566Z,8.38
2022-10-04T06:49:35.416Z,8.30
2022-10-04T06:52:25.239Z,8.45
2022-10-04T06:55:26.067Z,8.45
2022-10-04T06:58:30.074Z,8.42
2022-10-04T07:01:03.861Z,8.43
2022-10-04T07:03:40.964Z,8.50
2022-10-04T07:06:11.854Z,8.40
2022-10-04T07:08:48.394Z,8.61
2022-10-04T07:11:24.493Z,8.77
2022-10-04T07:13:57.800Z,8.94
2022-10-04T07:16:40.934Z,9.12
2022-10-04T07:19:36.346Z,9.24
2022-10-04T07:22:16.995Z,9.22
2022-10-04T07:25:02.269Z,9.26
2022-10-04T07:27:38.209Z,9.35
2022-10-04T07:30:14.730Z,9.32
2022-10-04T07:32:48.070Z,9.47
2022-10-04T07:35:28.465Z,9.66
2022-10-04T07:38:05.654Z,9.73
2022-10-04T07:40:37.967Z,9.72
2022-10-04T07:43:14.651Z,9.89
2022-10-04T07:45:43.562Z,9.95
2022-10-04T07:48:17.776Z,9.94
2022-10-04T07:51:00.300Z,10.07
2022-10-04T07:53:38.800Z,10.24
2022-10-04T07:56:12.609Z,10.34
2022-10-04T07:58:53.297Z,10.37
2022-10-04T08:01:31.635Z,10.37
2022-10-04T08:04:18.813Z,10.61
2022-10-04T08:06:59.155Z,10.75
2022-10-04T08:09:43.863Z,11.21
2022-10-04T08:12:22.772Z,11.62
2022-10-04T08:15:21.866Z,11.71
2022-10-04T08:17:58.771Z,11.77
2022-10-04T08:20:39.080Z,11.93
2022-10-04T08:23:32.091Z,12.40
2022-10-04T08:26:33.027Z,12.56
2022-10-04T08:29:45.005Z,12.65
2022-10-04T08:32:33.219Z,12.78
2022-10-04T08:35:38.523Z,13.27
2022-10-04T08:38:23.593Z,13.24
2022-10-04T08:41:27.036Z,13.42
2022-10-04T08:44:43.828Z,13.52
2022-10-04T08:48:08.250Z,13.37
2022-10-04T08:51:23.567Z,13.82
2022-10-04T08:55:20.791Z,13.45
2022-10-04T08:58:33.401Z,13.95
2022-10-04T09:01:25.666Z,13.96
2022-10-04T09:04:37.539Z,14.02
2022-10-04T09:07:29.133Z,14.55
2022-10-04T09:10:44.610Z,14.92
2022-10-04T09:13:37.935Z,14.99
2022-10-04T09:16:26.215Z,14.88
2022-10-04T09:19:21.874Z,15.05
2022-10-04T09:22:19.949Z,14.66
2022-10-04T09:25:46.947Z,14.99
2022-10-04T09:29:04.983Z,15.44
2022-10-04T09:32:25.316Z,15.60
2022-10-04T09:35:50.589Z,15.43
2022-10-04T09:39:25.297Z,15.49
2022-10-04T09:42:29.090Z,15.68
2022-10-04T09:45:31.196Z,15.78
2022-10-04T09:48:37.004Z,15.65
2022-10-04T09:51:23.313Z,16.01
2022-10-04T09:54:19.904Z,16.22
2022-10-04T09:57:17.128Z,16.16
2022-10-04T10:00:22.226Z,16.42
2022-10-04T10:04:00.973Z,16.81
2022-10-04T10:07:19.588Z,17.02
2022-10-04T10:10:18.679Z,17.03
2022-10-04T10:13:40.034Z,17.23
2022-10-04T10:16:27.589Z,17.04
2022-10-04T10:19:17.711Z,16.83
2022-10-04T10:22:01.012Z,16.51
2022-10-04T10:25:08.103Z,16.14
2022-10-04T10:28:00.898Z,15.94
2022-10-04T10:30:39.369Z,15.78
2022-10-04T10:33:40.541Z,15.79
2022-10-04T10:36:47.131Z,15.56
2022-10-04T10:39:57.753Z,15.48
2022-10-04T10:43:15.493Z,15.18
2022-10-04T10:46:15.544Z,14.88
2022-10-04T10:49:06.138Z,15.05
2022-10-04T10:52:01.254Z,15.55
2022-10-04T10:55:09.579Z,16.15
2022-10-04T10:58:20.895Z,16.95
2022-10-04T11:01:03.302Z,17.53
2022-10-04T11:04:04.830Z,17.92
2022-10-04T11:07:14.131Z,18.09
2022-10-04T11:10:29.310Z,18.24
2022-10-04T11:13:41.988Z,18.56
2022-10-04T11:16:44.423Z,18.61
2022-10-04T11:20:03.376Z,18.70
2022-10-04T11:23:12.028Z,17.84
2022-10-04T11:26:12.590Z,17.68
2022-10-04T11:28:47.779Z,17.42
2022-10-04T11:31:55.267Z,17.64
2022-10-04T11:35:26.942Z,17.92
2022-10-04T11:38:11.223Z,18.40
2022-10-04T11:41:04.455Z,18.58
2022-10-04T11:44:29.462Z,18.43
2022-10-04T11:47:07.946Z,18.37
2022-10-04T11:50:05.247Z,18.71
2022-10-04T11:53:06.273Z,18.72
2022-10-04T11:56:20.136Z,18.69
2022-10-04T11:59:09.819Z,18.77
2022-10-04T12:02:23.013Z,18.96
2022-10-04T12:05:22.234Z,19.12
2022-10-04T12:08:03.521Z,18.62
2022-10-04T12:10:37.735Z,18.77
2022-10-04T12:13:40.741Z,18.63
2022-10-04T12:17:18.605Z,19.09
2022-10-04T12:20:12.282Z,18.95
2022-10-04T12:23:11.197Z,19.03
2022-10-04T12:26:01.803Z,18.93
2022-10-04T12:29:10.137Z,18.51
2022-10-04T12:31:44.977Z,18.70
2022-10-04T12:34:24.765Z,18.96
2022-10-04T12:37:18.845Z,19.05
2022-10-04T12:40:30.331Z,19.21
2022-10-04T12:43:08.592Z,19.22
2022-10-04T12:45:52.948Z,19.24
2022-10-04T12:49:11.808Z,19.29
2022-10-04T12:51:56.444Z,19.16
2022-10-04T12:54:39.493Z,19.27
2022-10-04T12:57:33.765Z,19.14
2022-10-04T13:00:16.320Z,19.20
2022-10-04T13:03:06.769Z,19.14
2022-10-04T13:05:43.762Z,19.12
2022-10-04T13:08:27.867Z,18.93
2022-10-04T13:11:24.116Z,18.94
2022-10-04T13:14:32.370Z,18.79
2022-10-04T13:17:34.528Z,18.67
2022-10-04T13:20:21.474Z,18.67
2022-10-04T13:22:57.288Z,18.61
2022-10-04T13:25:52.173Z,18.55
2022-10-04T13:28:30.723Z,18.52
2022-10-04T13:31:06.988Z,18.48
2022-10-04T13:33:47.397Z,18.37
2022-10-04T13:36:25.485Z,18.35
2022-10-04T13:39:31.490Z,18.33
2022-10-04T13:42:35.827Z,18.39
2022-10-04T13:45:34.173Z,18.40
2022-10-04T13:48:26.167Z,18.51
2022-10-04T13:51:16.269Z,18.46
2022-10-04T13:54:13.877Z,18.36
2022-10-04T13:57:25.674Z,18.38
2022-10-04T14:00:03.516Z,18.33
2022-10-04T14:03:19.768Z,18.28
2022-10-04T14:06:47.224Z,18.30
2022-10-04T14:10:11.767Z,18.13
2022-10-04T14:13:33.652Z,18.11
2022-10-04T14:16:37.100Z,18.08
2022-10-04T14:20:03.810Z,18.13
2022-10-04T14:23:08.613Z,18.06
2022-10-04T14:26:28.341Z,18.03
2022-10-04T14:29:37.192Z,18.00
2022-10-04T14:32:52.153Z,18.11
2022-10-04T14:35:27.380Z,18.13
2022-10-04T14:38:36.166Z,18.12
2022-10-04T14:42:11.750Z,18.17
2022-10-04T14:45:11.455Z,18.22
2022-10-04T14:48:30.731Z,18.14
2022-10-04T14:51:26.615Z,18.15
2022-10-04T14:54:03.168Z,18.03
2022-10-04T14:56:59.291Z,17.94
2022-10-04T14:59:52.005Z,18.01
2022-10-04T15:03:13.328Z,18.13
2022-10-04T15:06:09.312Z,18.13
2022-10-04T15:09:18.759Z,18.10
2022-10-04T15:12:25.361Z,18.20
2022-10-04T15:15:14.878Z,18.22
2022-10-04T15:17:57.963Z,18.12
2022-10-04T15:20:34.294Z,18.08
2022-10-04T15:23:16.823Z,18.08
2022-10-04T15:25:48.318Z,18.02
2022-10-04T15:28:46.431Z,18.09
2022-10-04T15:31:25.638Z,18.12
2022-10-04T15:34:04.630Z,18.01
2022-10-04T15:37:10.170Z,17.93
2022-10-04T15:40:27.980Z,17.98
2022-10-04T15:43:19.330Z,17.93
2022-10-04T15:46:35.249Z,17.97
2022-10-04T15:49:37.101Z,17.95
2022-10-04T15:52:27.569Z,17.86
2022-10-04T15:55:19.867Z,17.85
2022-10-04T15:58:52.729Z,17.76
2022-10-04T16:02:08.902Z,17.84
2022-10-04T16:04:47.095Z,17.74
2022-10-04T16:08:04.378Z,17.76
2022-10-04T16:11:00.915Z,17.69
2022-10-04T16:14:19.999Z,17.63
2022-10-04T16:17:26.524Z,17.59
2022-10-04T16:20:38.758Z,17.52
2022-10-04T16:23:34.160Z,17.50
2022-10-04T16:26:06.379Z,17.48
2022-10-04T16:29:05.646Z,17.46
2022-10-04T16:31:54.509Z,17.32
2022-10-04T16:34:48.268Z,17.25
2022-10-04T16:37:39.816Z,17.18
2022-10-04T16:40:31.941Z,17.10
2022-10-04T16:43:04.485Z,17.05
2022-10-04T16:45:51.378Z,16.99
2022-10-04T16:48:51.610Z,16.93
2022-10-04T16:51:55.223Z,16.82
2022-10-04T16:55:02.981Z,16.75
2022-10-04T16:57:31.610Z,16.66
2022-10-04T17:00:05.823Z,16.60
2022-10-04T17:03:08.635Z,16.51
2022-10-04T17:06:14.223Z,16.44
2022-10-04T17:08:55.535Z,16.34
2022-10-04T17:11:45.726Z,16.27
2022-10-04T17:14:52.139Z,16.20
2022-10-04T17:17:33.398Z,16.13
2022-10-04T17:20:13.887Z,16.06
2022-10-04T17:22:59.463Z,16.01
2022-10-04T17:25:35.036Z,15.94
2022-10-04T17:28:26.214Z,15.88
2022-10-04T17:31:04.120Z,15.88
2022-10-04T17:33:44.018Z,15.85
2022-10-04T17:36:34.690Z,15.77
2022-10-04T17:39:18.372Z,15.74
2022-10-04T17:42:07.523Z,15.69
2022-10-04T17:45:09.394Z,15.64
2022-10-04T17:48:11.858Z,15.58
2022-10-04T17:51:06.497Z,15.47
2022-10-04T17:53:55.720Z,15.44
2022-10-04T17:56:33.783Z,15.36
2022-10-04T17:59:12.397Z,15.32
2022-10-04T18:01:46.860Z,15.27
2022-10-04T18:04:23.656Z,15.20
2022-10-04T18:06:58.797Z,15.16
2022-10-04T18:09:35.659Z,15.12
2022-10-04T18:12:12.738Z,15.08
2022-10-04T18:15:03.699Z,15.02
2022-10-04T18:17:39.627Z,14.99
2022-10-04T18:20:29.334Z,14.98
2022-10-04T18:23:01.724Z,14.93
2022-10-04T18:25:33.996Z,14.89
2022-10-04T18:28:11.768Z,14.87
2022-10-04T18:30:59.151Z,14.82
2022-10-04T18:33:48.245Z,14.77
2022-10-04T18:36:19.560Z,14.72
2022-10-04T18:39:03.963Z,14.71
2022-10-04T18:41:50.624Z,14.71
2022-10-04T18:44:23.362Z,14.64
2022-10-04T18:46:57.892Z,14.61
2022-10-04T18:49:32.939Z,14.57
2022-10-04T18:52:21.232Z,14.53
2022-10-04T18:55:02.679Z,14.48
2022-10-04T18:57:57.970Z,14.45
2022-10-04T19:00:45.847Z,14.42
2022-10-04T19:03:24.702Z,14.40
2022-10-04T19:06:01.441Z,14.35
2022-10-04T19:08:47.128Z,14.36
2022-10-04T19:11:20.586Z,14.32
2022-10-04T19:13:57.110Z,14.28
2022-10-04T19:16:45.053Z,14.22
2022-10-04T19:19:40.965Z,14.18
2022-10-04T19:22:31.362Z,14.13
2022-10-04T19:25:30.143Z,14.10
2022-10-04T19:28:11.176Z,14.09
2022-10-04T19:31:06.415Z,14.09
2022-10-04T19:33:47.914Z,14.06
2022-10-04T19:36:45.457Z,14.04
2022-10-04T19:39:32.136Z,14.01
2022-10-04T19:42:04.291Z,13.98
2022-10-04T19:45:02.435Z,13.91
2022-10-04T19:47:43.426Z,13.89
2022-10-04T19:50:23.821Z,13.87
2022-10-04T19:52:56.237Z,13.82
2022-10-04T19:55:48.546Z,13.78
2022-10-04T19:58:31.885Z,13.72
2022-10-04T20:01:00.474Z,13.70
2022-10-04T20:03:28.868Z,13.67
2022-10-04T20:05:57.646Z,13.64
2022-10-04T20:08:52.275Z,13.60
2022-10-04T20:11:24.792Z,13.54
2022-10-04T20:14:47.055Z,13.46
2022-10-04T20:17:33.983Z,13.41
2022-10-04T20:20:02.355Z,13.40
2022-10-04T20:22:56.349Z,13.40
2022-10-04T20:26:02.626Z,13.34
2022-10-04T20:28:43.611Z,13.31
2022-10-04T20:31:54.000Z,13.24
2022-10-04T20:34:35.461Z,13.21
2022-10-04T20:37:04.824Z,13.21
2022-10-04T20:40:00.373Z,13.08
2022-10-04T20:42:37.626Z,13.13
2022-10-04T20:45:27.904Z,13.11
2022-10-04T20:47:58.255Z,13.03
2022-10-04T20:50:36.018Z,12.99
2022-10-04T20:53:08.670Z,12.93
2022-10-04T20:55:39.000Z,12.92
2022-10-04T20:58:27.332Z,12.83
2022-10-04T21:00:58.911Z,12.80
2022-10-04T21:03:28.583Z,12.78
2022-10-04T21:06:03.997Z,12.83
2022-10-04T21:08:33.186Z,12.74
2022-10-04T21:11:19.728Z,12.68
2022-10-04T21:14:00.640Z,12.63
2022-10-04T21:16:47.932Z,12.63
2022-10-04T21:19:45.171Z,12.60
2022-10-04T21:22:39.050Z,12.62
2022-10-04T21:25:32.979Z,12.58
2022-10-04T21:28:33.240Z,12.51
2022-10-04T21:31:03.328Z,12.46
2022-10-04T21:33:36.223Z,12.36
2022-10-04T21:36:07.176Z,12.30
2022-10-04T21:38:35.645Z,12.22
2022-10-04T21:41:04.395Z,12.15
2022-10-04T21:43:32.866Z,12.11
2022-10-04T21:46:01.318Z,12.08
2022-10-04T21:48:29.861Z,12.00
2022-10-04T21:50:58.131Z,12.04
2022-10-04T21:53:27.846Z,11.93
2022-10-04T21:55:56.421Z,11.97
2022-10-04T21:58:24.808Z,11.98
2022-10-04T22:00:53.252Z,12.00
2022-10-04T22:03:21.663Z,11.98
2022-10-04T22:05:49.955Z,11.90
2022-10-04T22:08:18.423Z,11.90
2022-10-04T22:10:48.696Z,11.86
2022-10-04T22:13:17.244Z,11.79
2022-10-04T22:15:45.544Z,11.82
2022-10-04T22:18:13.863Z,11.83
2022-10-04T22:20:42.127Z,11.79
2022-10-04T22:23:19.057Z,11.82
2022-10-04T22:25:49.023Z,12.05
2022-10-04T22:28:23.949Z,12.20
2022-10-04T22:30:53.302Z,12.47
2022-10-04T22:33:32.791Z,12.51
2022-10-04T22:36:14.786Z,12.55
2022-10-04T22:38:46.773Z,12.36
2022-10-04T22:41:19.181Z,12.39
2022-10-04T22:43:47.939Z,12.41
2022-10-04T22:46:19.186Z,12.36
2022-10-04T22:48:50.284Z,12.30
2022-10-04T22:51:18.659Z,12.23
2022-10-04T22:53:49.616Z,12.04
2022-10-04T22:56:19.306Z,11.90
2022-10-04T22:58:47.652Z,11.82
2022-10-04T23:01:18.738Z,11.75
2022-10-04T23:03:49.931Z,11.72
2022-10-04T23:06:18.290Z,11.67
2022-10-04T23:08:46.843Z,11.58
2022-10-04T23:11:15.248Z,11.59
2022-10-04T23:13:45.121Z,11.54
2022-10-04T23:16:24.047Z,11.52
2022-10-04T23:18:59.908Z,11.55
2022-10-04T23:21:32.238Z,11.48
2022-10-04T23:24:11.749Z,11.46
2022-10-04T23:26:41.840Z,11.44
2022-10-04T23:29:18.731Z,11.50
2022-10-04T23:31:48.630Z,11.52
2022-10-04T23:34:21.233Z,11.52
2022-10-04T23:36:50.148Z,11.51
2022-10-04T23:39:26.315Z,11.46
2022-10-04T23:41:56.156Z,11.46
2022-10-04T23:44:31.233Z,11.39
2022-10-04T23:46:59.644Z,11.33
2022-10-04T23:49:28.181Z,11.30
2022-10-04T23:52:00.761Z,11.25
2022-10-04T23:54:29.203Z,11.23
2022-10-04T23:56:57.634Z,11.23
2022-10-04T23:59:27.917Z,11.17
